Time;durP1;ratioP1;P1;durP2;ratioP2;P2;SDS_P1;SDS_P2;PMS_P1;PMS_P2;Temp;Humidity;BMP_temperature;BMP_pressure;BME280_temperature;BME280_humidity;BME280_pressure;Samples;Min_cycle;Max_cycle;Signal;HPM_P1;HPM_P2
2022/08/23 00:00:09;;;;;;;11.43;6.00;;;;;;;16.83;90.38;101116.44;172036;28;1035;-68
2022/08/23 00:00:15;;;;;;;11.66;5.97;;;;;;;16.82;90.40;101115.59;171962;28;1264;-68
2022/08/23 00:00:21;;;;;;;11.20;5.90;;;;;;;16.81;90.60;101113.91;171995;28;1073;-68
2022/08/23 00:00:26;;;;;;;11.32;5.97;;;;;;;16.82;90.62;101114.75;172011;28;872;-68
2022/08/23 00:00:33;;;;;;;11.83;5.93;;;;;;;16.81;90.48;101118.34;172044;28;816;-68
2022/08/23 00:00:38;;;;;;;10.88;5.92;;;;;;;16.80;90.66;101119.28;172009;28;895;-68
2022/08/23 00:00:44;;;;;;;10.97;5.80;;;;;;;16.81;90.11;101113.06;171998;28;879;-67
2022/08/23 00:00:49;;;;;;;11.37;5.70;;;;;;;16.81;90.35;101113.91;171962;28;954;-67
2022/08/23 00:00:55;;;;;;;11.02;5.65;;;;;;;16.80;90.38;101114.84;172012;28;927;-68
2022/08/23 00:01:00;;;;;;;11.10;5.77;;;;;;;16.80;90.81;101111.38;172001;28;1046;-68
2022/08/23 00:01:11;;;;;;;11.15;5.75;;;;;;;16.80;90.58;101117.47;172031;28;852;-68
2022/08/23 00:01:23;;;;;;;11.65;5.96;;;;;;;16.80;90.54;101114.00;171986;28;1166;-68
2022/08/23 00:01:33;;;;;;;10.50;6.03;;;;;;;16.80;90.28;101116.66;172004;28;1238;-68
2022/08/23 00:01:42;;;;;;;9.80;6.06;;;;;;;16.79;90.18;101117.56;171855;28;1148;-67
2022/08/23 00:01:52;;;;;;;10.30;6.20;;;;;;;16.78;90.12;101118.53;172020;28;887;-67
2022/08/23 00:02:08;;;;;;;11.94;6.35;;;;;;;16.78;90.63;101118.53;172703;28;1156;-68
2022/08/23 00:02:14;;;;;;;12.26;6.35;;;;;;;16.78;90.38;101114.13;172714;28;1244;-68
2022/08/23 00:02:19;;;;;;;12.75;6.18;;;;;;;16.77;90.11;101112.44;172716;28;1097;-68
2022/08/23 00:02:26;;;;;;;11.97;6.07;;;;;;;16.79;90.57;101120.22;172716;28;895;-68
2022/08/23 00:02:31;;;;;;;12.07;5.83;;;;;;;16.78;90.24;101119.38;172739;28;856;-68
2022/08/23 00:02:37;;;;;;;11.30;5.80;;;;;;;16.78;90.20;101113.25;172760;28;832;-68
2022/08/23 00:02:42;;;;;;;12.33;5.87;;;;;;;16.78;90.30;101115.88;172720;28;959;-68
2022/08/23 00:02:48;;;;;;;12.35;5.97;;;;;;;16.78;90.42;101113.25;172757;28;1335;-68
2022/08/23 00:02:53;;;;;;;12.00;6.03;;;;;;;16.78;90.28;101118.53;172710;28;872;-68
2022/08/23 00:02:59;;;;;;;12.10;6.20;;;;;;;16.78;90.11;101119.38;172583;28;1142;-68
2022/08/23 00:03:04;;;;;;;13.23;6.27;;;;;;;16.78;90.33;101118.53;172691;28;1030;-68
2022/08/23 00:03:09;;;;;;;13.70;6.38;;;;;;;16.79;89.77;101114.94;172677;28;1082;-67
2022/08/23 00:03:15;;;;;;;13.27;6.20;;;;;;;16.78;90.40;101116.75;172681;28;831;-68
2022/08/23 00:03:20;;;;;;;13.37;6.37;;;;;;;16.78;90.13;101118.53;172686;28;818;-68
2022/08/23 00:03:25;;;;;;;13.20;6.30;;;;;;;16.78;90.05;101122.03;172674;28;844;-68
2022/08/23 00:03:31;;;;;;;12.63;6.23;;;;;;;16.78;90.21;101118.53;172701;28;840;-68
2022/08/23 00:03:36;;;;;;;11.97;6.07;;;;;;;16.78;89.92;101121.16;172659;28;908;-68
2022/08/23 00:03:42;;;;;;;11.02;6.00;;;;;;;16.78;90.11;101119.38;172661;28;978;-68
2022/08/23 00:03:50;;;;;;;10.73;5.93;;;;;;;16.77;89.83;101122.13;172693;28;1030;-68
2022/08/23 00:04:00;;;;;;;10.62;5.70;;;;;;;16.78;89.80;101118.53;172647;28;1133;-68
2022/08/23 00:04:14;;;;;;;10.04;5.76;;;;;;;16.77;90.21;101116.84;172692;28;1157;-68
2022/08/23 00:04:27;;;;;;;9.64;5.70;;;;;;;16.76;89.97;101115.16;172660;28;1218;-68
2022/08/23 00:04:39;;;;;;;10.32;5.64;;;;;;;16.77;90.09;101119.47;172667;28;1239;-68
2022/08/23 00:04:45;;;;;;;12.34;5.79;;;;;;;16.74;90.32;101117.88;172667;28;1240;-68
2022/08/23 00:04:51;;;;;;;12.93;5.82;;;;;;;16.74;90.22;101117.88;172671;28;859;-68
2022/08/23 00:04:57;;;;;;;11.73;5.90;;;;;;;16.73;90.15;101111.75;172710;28;888;-68
2022/08/23 00:05:03;;;;;;;11.17;5.77;;;;;;;16.72;90.29;101118.00;172616;28;1423;-67
2022/08/23 00:05:08;;;;;;;10.40;5.80;;;;;;;16.73;90.19;101117.03;172692;28;887;-67
2022/08/23 00:05:14;;;;;;;8.88;5.70;;;;;;;16.72;90.51;101110.09;172616;28;1228;-67
2022/08/23 00:05:19;;;;;;;8.87;5.80;;;;;;;16.72;90.27;101120.63;172672;28;1008;-68
2022/08/23 00:05:25;;;;;;;9.38;5.70;;;;;;;16.72;90.63;101117.13;172706;28;1280;-68
2022/08/23 00:05:30;;;;;;;11.23;5.85;;;;;;;16.72;90.85;101119.75;172683;28;871;-67
2022/08/23 00:05:35;;;;;;;11.87;5.90;;;;;;;16.72;90.59;101111.84;172705;28;1069;-68
2022/08/23 00:05:41;;;;;;;11.63;6.00;;;;;;;16.71;90.64;101113.66;172650;28;1105;-68
2022/08/23 00:05:46;;;;;;;11.57;5.90;;;;;;;16.71;90.66;101113.66;172716;28;971;-68
2022/08/23 00:05:51;;;;;;;11.13;5.97;;;;;;;16.72;90.60;101118.00;171928;28;1425;-68
2022/08/23 00:05:57;;;;;;;10.47;5.97;;;;;;;16.72;90.96;101115.34;172019;28;915;-68
2022/08/23 00:06:02;;;;;;;9.30;5.95;;;;;;;16.72;90.66;101119.75;172024;28;1006;-68
2022/08/23 00:06:10;;;;;;;10.17;6.00;;;;;;;16.73;90.39;101116.19;171995;28;879;-67
2022/08/23 00:06:17;;;;;;;11.55;6.08;;;;;;;16.73;90.50;101116.19;171983;28;1403;-68
2022/08/23 00:06:23;;;;;;;12.14;6.06;;;;;;;16.73;90.20;101114.41;171984;28;1058;-67
2022/08/23 00:06:29;;;;;;;13.45;6.00;;;;;;;16.73;90.19;101117.03;172019;28;821;-68
2022/08/23 00:06:34;;;;;;;13.60;5.88;;;;;;;16.73;90.02;101117.03;172035;28;935;-67
2022/08/23 00:06:41;;;;;;;13.20;5.80;;;;;;;16.73;90.21;101122.31;172023;28;849;-68
2022/08/23 00:06:49;;;;;;;12.20;5.70;;;;;;;16.73;90.42;101113.53;172020;28;1009;-68
2022/08/23 00:06:55;;;;;;;11.70;5.70;;;;;;;16.74;90.07;101109.97;172028;28;892;-68
2022/08/23 00:07:03;;;;;;;11.25;5.72;;;;;;;16.74;90.36;101113.44;172028;28;951;-68
2022/08/23 00:07:12;;;;;;;10.85;5.77;;;;;;;16.74;90.00;101115.25;171987;28;974;-68
2022/08/23 00:07:18;;;;;;;12.50;5.70;;;;;;;16.73;90.35;101114.41;172007;28;1090;-68
2022/08/23 00:07:24;;;;;;;12.50;5.77;;;;;;;16.74;89.99;101113.44;172023;28;947;-68
2022/08/23 00:07:29;;;;;;;11.33;5.67;;;;;;;16.73;90.30;101117.03;172004;28;848;-68
2022/08/23 00:07:42;;;;;;;10.90;5.60;;;;;;;16.73;90.04;101117.03;172024;28;898;-67
2022/08/23 00:07:47;;;;;;;9.63;5.51;;;;;;;16.74;90.06;101113.44;171976;28;1230;-68
2022/08/23 00:07:53;;;;;;;9.17;5.43;;;;;;;16.73;90.39;101111.75;172681;28;1034;-68
2022/08/23 00:07:58;;;;;;;9.65;5.43;;;;;;;16.73;90.10;101117.03;172694;28;1042;-68
2022/08/23 00:08:04;;;;;;;10.53;5.53;;;;;;;16.73;90.37;101119.66;172772;28;1034;-68
2022/08/23 00:08:10;;;;;;;10.77;5.60;;;;;;;16.72;90.28;101115.34;172716;28;1062;-68
2022/08/23 00:08:15;;;;;;;10.75;5.60;;;;;;;16.72;90.55;101115.34;172703;28;1053;-68
2022/08/23 00:08:20;;;;;;;10.77;5.70;;;;;;;16.73;90.56;101118.81;172592;28;1053;-68
2022/08/23 00:08:26;;;;;;;10.38;5.68;;;;;;;16.72;90.65;101110.09;172680;28;942;-68
2022/08/23 00:08:51;;;;;;;9.20;5.60;;;;;;;16.72;90.69;101115.34;172675;28;987;-68
2022/08/23 00:08:58;;;;;;;9.59;5.70;;;;;;;16.73;90.68;101121.44;172639;28;1229;-68
2022/08/23 00:09:05;;;;;;;10.34;5.76;;;;;;;16.73;90.33;101109.13;172686;28;1074;-68
2022/08/23 00:09:11;;;;;;;9.82;5.78;;;;;;;16.72;90.68;101115.34;171832;28;2596;-68
2022/08/23 00:09:21;;;;;;;9.18;5.78;;;;;;;16.73;90.31;101118.81;171956;28;1062;-67
2022/08/23 00:09:28;;;;;;;10.32;5.96;;;;;;;16.71;90.46;101113.66;171220;28;1487;-68
2022/08/23 00:09:34;;;;;;;10.00;6.06;;;;;;;16.72;90.43;101122.41;171335;28;892;-68
2022/08/23 00:09:40;;;;;;;10.45;5.95;;;;;;;16.71;90.97;101118.94;171225;28;1314;-68
2022/08/23 00:09:45;;;;;;;11.13;6.00;;;;;;;16.71;90.46;101112.81;171350;28;1058;-68
2022/08/23 00:09:50;;;;;;;10.03;5.87;;;;;;;16.71;90.72;101113.66;171330;28;1043;-67
2022/08/23 00:09:56;;;;;;;9.38;5.70;;;;;;;16.71;90.89;101118.09;171354;28;852;-68
2022/08/23 00:10:03;;;;;;;9.90;5.57;;;;;;;16.70;91.11;101109.31;171340;28;712;-68
2022/08/23 00:10:14;;;;;;;9.64;5.58;;;;;;;16.70;91.08;101111.94;171343;28;912;-68
2022/08/23 00:10:19;;;;;;;8.68;5.54;;;;;;;16.69;90.80;101110.28;170543;28;1375;-68
2022/08/23 00:10:25;;;;;;;8.68;5.57;;;;;;;16.68;90.79;101105.94;170672;29;881;-68
2022/08/23 00:10:31;;;;;;;7.87;5.67;;;;;;;16.68;90.70;101118.28;170700;29;833;-67
2022/08/23 00:10:36;;;;;;;8.77;5.88;;;;;;;16.68;90.92;101107.72;170691;29;936;-67
2022/08/23 00:10:41;;;;;;;9.63;6.00;;;;;;;16.68;91.26;101113.84;170686;29;934;-67
2022/08/23 00:10:47;;;;;;;9.40;5.97;;;;;;;16.67;91.22;101117.44;170678;29;864;-67
2022/08/23 00:10:52;;;;;;;9.43;5.97;;;;;;;16.68;91.28;101116.50;170646;29;1031;-68
2022/08/23 00:10:58;;;;;;;10.32;5.93;;;;;;;16.68;91.27;101118.28;170678;29;1315;-67
2022/08/23 00:11:05;;;;;;;11.07;5.80;;;;;;;16.68;91.18;101113.00;170671;29;912;-67
2022/08/23 00:11:50;;;;;;;9.23;5.60;;;;;;;16.67;91.54;101114.81;171155;28;1059;-67
2022/08/23 00:12:18;;;;;;;9.60;5.51;;;;;;;16.66;91.54;101113.09;170614;29;1346;-67
2022/08/23 00:12:24;;;;;;;10.27;5.81;;;;;;;16.66;91.42;101113.09;171224;28;1235;-67
2022/08/23 00:12:29;;;;;;;11.15;6.22;;;;;;;16.66;91.58;101115.72;171319;28;856;-67
2022/08/23 00:12:34;;;;;;;10.97;6.13;;;;;;;16.66;91.76;101112.28;171337;28;1046;-67
2022/08/23 00:12:42;;;;;;;10.98;6.00;;;;;;;16.66;91.65;101115.72;171309;28;856;-67
2022/08/23 00:12:48;;;;;;;10.53;6.00;;;;;;;16.65;91.34;101113.19;171301;28;860;-67
2022/08/23 00:12:53;;;;;;;10.47;5.90;;;;;;;16.64;91.53;101109.72;171296;28;927;-67
2022/08/23 00:12:59;;;;;;;10.60;5.83;;;;;;;16.63;91.42;101110.66;171293;28;1093;-67
2022/08/23 00:13:04;;;;;;;10.48;5.82;;;;;;;16.63;91.21;101105.38;171567;28;1239;-67
2022/08/23 00:13:09;;;;;;;10.47;5.80;;;;;;;16.62;91.30;101106.34;172710;28;1034;-67
2022/08/23 00:13:16;;;;;;;10.77;5.80;;;;;;;16.63;91.55;101110.66;172563;28;1667;-67
2022/08/23 00:13:22;;;;;;;11.33;5.77;;;;;;;16.62;91.58;101119.50;172647;28;911;-67
2022/08/23 00:13:27;;;;;;;10.52;5.75;;;;;;;16.62;91.53;101114.25;172645;28;1235;-66
2022/08/23 00:13:33;;;;;;;10.82;5.78;;;;;;;16.63;91.45;101115.09;172700;28;867;-67
2022/08/23 00:13:38;;;;;;;11.70;5.93;;;;;;;16.61;91.47;101109.91;172696;28;1034;-67
2022/08/23 00:13:43;;;;;;;11.50;6.03;;;;;;;16.60;91.31;101110.88;172648;28;1089;-67
2022/08/23 00:13:49;;;;;;;11.83;6.30;;;;;;;16.61;91.38;101115.19;172684;28;872;-67
2022/08/23 00:13:56;;;;;;;11.90;6.27;;;;;;;16.60;91.78;101110.88;172697;28;898;-67
2022/08/23 00:14:27;;;;;;;12.00;6.30;;;;;;;16.62;91.91;101116.88;172695;28;1045;-67
2022/08/23 00:14:37;;;;;;;10.57;6.06;;;;;;;16.61;91.45;101107.28;172483;28;2165;-67
2022/08/23 00:14:51;;;;;;;11.48;6.05;;;;;;;16.60;91.48;101111.69;172647;28;1148;-67
2022/08/23 00:14:56;;;;;;;12.18;6.06;;;;;;;16.62;91.36;101113.41;172543;28;1399;-67
2022/08/23 00:15:03;;;;;;;12.27;6.15;;;;;;;16.61;91.51;101104.66;172673;28;942;-66
2022/08/23 00:15:13;;;;;;;11.95;6.10;;;;;;;16.61;91.33;101112.56;172701;28;1156;-67
2022/08/23 00:15:20;;;;;;;11.71;6.07;;;;;;;16.62;91.35;101108.16;172662;28;1248;-67
2022/08/23 00:15:25;;;;;;;10.57;5.88;;;;;;;16.62;91.58;101108.97;172623;28;914;-67
2022/08/23 00:15:30;;;;;;;10.13;5.65;;;;;;;16.61;91.41;101104.66;172657;28;896;-67
2022/08/23 00:15:36;;;;;;;11.23;5.60;;;;;;;16.62;91.51;101108.97;172653;28;848;-67
2022/08/23 00:15:41;;;;;;;10.63;5.50;;;;;;;16.61;91.67;101104.66;172669;28;847;-67
2022/08/23 00:15:47;;;;;;;10.07;5.43;;;;;;;16.61;91.62;101102.03;172680;28;840;-67
2022/08/23 00:15:52;;;;;;;10.13;5.50;;;;;;;16.62;91.32;101111.59;172657;28;856;-67
2022/08/23 00:15:59;;;;;;;10.73;5.60;;;;;;;16.62;91.48;101108.97;172665;28;851;-67
2022/08/23 00:16:04;;;;;;;10.65;5.80;;;;;;;16.61;91.64;101107.28;172718;28;1007;-68
2022/08/23 00:16:10;;;;;;;10.77;5.85;;;;;;;16.62;91.48;101114.25;172668;28;1206;-67
2022/08/23 00:16:15;;;;;;;11.10;5.83;;;;;;;16.62;91.47;101111.59;172667;28;1087;-67
2022/08/23 00:16:21;;;;;;;11.55;5.80;;;;;;;16.61;91.79;101109.91;172675;28;785;-67
2022/08/23 00:16:27;;;;;;;11.50;5.80;;;;;;;16.63;91.77;101110.66;172677;28;927;-67
2022/08/23 00:16:34;;;;;;;11.52;5.90;;;;;;;16.62;91.51;101111.59;172525;28;2893;-66
2022/08/23 00:16:40;;;;;;;10.63;5.85;;;;;;;16.62;91.57;101114.25;172627;28;1041;-67
2022/08/23 00:16:46;;;;;;;10.68;6.00;;;;;;;16.62;91.34;101111.59;172692;28;1339;-67
2022/08/23 00:16:55;;;;;;;11.10;6.10;;;;;;;16.63;91.50;101117.72;172684;28;999;-67
2022/08/23 00:17:03;;;;;;;13.97;6.23;;;;;;;16.61;91.62;101109.91;172018;28;1325;-67
2022/08/23 00:17:10;;;;;;;14.52;6.22;;;;;;;16.62;91.66;101108.16;172000;28;1014;-67
2022/08/23 00:17:17;;;;;;;15.78;6.18;;;;;;;16.62;91.84;101116.06;171994;28;907;-67
2022/08/23 00:17:22;;;;;;;14.53;6.00;;;;;;;16.61;91.96;101107.28;172017;28;895;-66
2022/08/23 00:17:28;;;;;;;12.23;5.80;;;;;;;16.61;91.52;101104.66;172000;28;895;-66
2022/08/23 00:17:33;;;;;;;12.40;5.72;;;;;;;16.61;91.59;101107.28;172157;28;873;-67
2022/08/23 00:17:41;;;;;;;12.90;5.83;;;;;;;16.59;91.28;101106.53;172673;28;903;-66
2022/08/23 00:17:46;;;;;;;11.73;5.90;;;;;;;16.59;91.45;101110.03;172692;28;998;-67
2022/08/23 00:17:52;;;;;;;11.82;6.00;;;;;;;16.60;91.67;101110.88;172594;28;931;-67
2022/08/23 00:17:59;;;;;;;11.83;6.10;;;;;;;16.59;91.95;101109.16;172661;28;1046;-67
2022/08/23 00:18:04;;;;;;;9.42;5.94;;;;;;;16.59;91.49;101107.38;171910;28;1131;-67
2022/08/23 00:18:09;;;;;;;8.15;5.82;;;;;;;16.59;91.89;101109.16;171982;28;1101;-67
2022/08/23 00:18:17;;;;;;;8.30;5.83;;;;;;;16.57;92.10;101111.91;172000;28;911;-67
2022/08/23 00:18:23;;;;;;;8.72;5.72;;;;;;;16.58;91.70;101110.09;171986;28;927;-67
2022/08/23 00:18:28;;;;;;;9.54;5.72;;;;;;;16.58;91.96;101112.75;171906;28;1188;-67
2022/08/23 00:18:33;;;;;;;10.67;6.00;;;;;;;16.58;91.82;101107.47;171402;28;820;-67
2022/08/23 00:18:39;;;;;;;12.10;6.00;;;;;;;16.58;91.85;101102.22;171842;28;838;-67
2022/08/23 00:18:44;;;;;;;12.25;5.95;;;;;;;16.58;91.97;101112.75;172000;28;1097;-67
2022/08/23 00:18:50;;;;;;;12.17;6.03;;;;;;;16.58;91.80;101107.47;171946;28;860;-67
2022/08/23 00:18:55;;;;;;;11.95;6.18;;;;;;;16.59;92.00;101109.16;171987;28;844;-67
2022/08/23 00:19:06;;;;;;;12.53;6.07;;;;;;;16.58;91.56;101110.97;172001;28;919;-67
2022/08/23 00:19:15;;;;;;;11.82;5.92;;;;;;;16.58;91.88;101107.47;171989;28;1265;-67
2022/08/23 00:19:22;;;;;;;11.00;5.93;;;;;;;16.58;91.78;101112.75;172000;28;943;-67
2022/08/23 00:19:27;;;;;;;11.43;5.90;;;;;;;16.57;91.75;101106.66;172010;28;1070;-67
2022/08/23 00:19:33;;;;;;;10.70;6.10;;;;;;;16.58;91.85;101110.09;171971;28;1093;-66
2022/08/23 00:19:39;;;;;;;10.53;6.20;;;;;;;16.58;91.75;101110.97;172015;28;1041;-67
2022/08/23 00:19:46;;;;;;;11.43;6.30;;;;;;;16.56;91.87;101109.38;171974;28;1148;-66
2022/08/23 00:19:52;;;;;;;11.70;6.20;;;;;;;16.57;91.52;101108.44;171975;28;919;-66
2022/08/23 00:19:57;;;;;;;12.18;6.28;;;;;;;16.56;91.79;101114.66;171867;28;790;-66
2022/08/23 00:20:06;;;;;;;13.17;6.20;;;;;;;16.56;91.47;101115.47;172011;28;832;-67
2022/08/23 00:20:16;;;;;;;14.11;6.13;;;;;;;16.56;91.48;101114.66;171993;28;1243;-67
2022/08/23 00:20:22;;;;;;;14.36;6.15;;;;;;;16.55;91.76;101107.66;171896;28;1413;-67
2022/08/23 00:20:27;;;;;;;14.55;6.30;;;;;;;16.55;91.41;101113.78;171984;28;954;-67
2022/08/23 00:20:33;;;;;;;13.00;6.17;;;;;;;16.56;91.39;101114.66;171977;28;979;-67
2022/08/23 00:20:39;;;;;;;12.10;6.30;;;;;;;16.55;91.41;101110.31;172032;28;975;-67
2022/08/23 00:20:44;;;;;;;11.98;6.40;;;;;;;16.55;91.22;101112.94;171975;28;1026;-67
2022/08/23 00:20:50;;;;;;;12.10;6.30;;;;;;;16.54;91.34;101106.84;172002;28;1026;-67
2022/08/23 00:20:55;;;;;;;10.80;6.20;;;;;;;16.55;90.95;101110.31;171984;28;1093;-67
2022/08/23 00:21:01;;;;;;;10.87;6.27;;;;;;;16.54;91.07;101111.25;172008;28;868;-67
2022/08/23 00:21:06;;;;;;;11.43;6.15;;;;;;;16.55;91.36;101112.94;172041;28;1046;-66
2022/08/23 00:21:12;;;;;;;11.13;6.10;;;;;;;16.55;91.16;101107.66;172008;28;704;-66
2022/08/23 00:21:17;;;;;;;11.55;6.25;;;;;;;16.55;91.18;101116.44;171997;28;1258;-67
2022/08/23 00:21:23;;;;;;;11.60;6.27;;;;;;;16.56;91.57;101112.84;171972;28;975;-67
2022/08/23 00:21:29;;;;;;;11.83;6.27;;;;;;;16.56;91.54;101118.09;172005;28;896;-67
2022/08/23 00:21:37;;;;;;;11.45;6.18;;;;;;;16.56;91.15;101114.66;171987;28;955;-67
2022/08/23 00:21:45;;;;;;;10.87;6.15;;;;;;;16.57;91.41;101117.19;171952;28;1002;-67
2022/08/23 00:21:54;;;;;;;10.53;5.80;;;;;;;16.55;91.23;101111.16;172027;28;1041;-67
2022/08/23 00:21:59;;;;;;;10.94;5.76;;;;;;;16.57;91.33;101116.34;172541;28;1611;-67
2022/08/23 00:22:06;;;;;;;11.73;6.00;;;;;;;16.57;91.38;101116.34;172628;28;1045;-67
2022/08/23 00:22:14;;;;;;;11.72;6.02;;;;;;;16.57;91.17;101116.34;172656;28;915;-67
2022/08/23 00:22:19;;;;;;;12.60;6.13;;;;;;;16.58;90.91;101118.00;172684;28;981;-66
2022/08/23 00:22:24;;;;;;;11.37;6.10;;;;;;;16.57;91.40;101121.59;172584;28;1071;-67
2022/08/23 00:22:30;;;;;;;11.33;6.03;;;;;;;16.57;91.01;101116.34;172688;28;1108;-66
2022/08/23 00:22:37;;;;;;;10.40;6.00;;;;;;;16.57;91.25;101118.97;172637;28;947;-66
2022/08/23 00:22:43;;;;;;;10.14;6.08;;;;;;;16.57;91.00;101117.19;172634;28;1077;-67
2022/08/23 00:22:48;;;;;;;9.10;6.10;;;;;;;16.57;91.35;101113.69;172673;28;1089;-67
2022/08/23 00:22:54;;;;;;;9.40;6.13;;;;;;;16.58;91.31;101115.38;172647;28;864;-67
2022/08/23 00:22:59;;;;;;;9.63;6.15;;;;;;;16.57;91.18;101113.69;172608;28;1053;-67
2022/08/23 00:23:04;;;;;;;10.50;6.10;;;;;;;16.58;91.32;101118.88;172652;28;891;-67
2022/08/23 00:23:10;;;;;;;10.67;6.07;;;;;;;16.57;90.91;101116.34;172705;28;875;-66
2022/08/23 00:23:16;;;;;;;11.32;6.00;;;;;;;16.56;91.09;101115.47;172636;28;951;-67
2022/08/23 00:23:21;;;;;;;11.80;5.95;;;;;;;16.57;91.36;101116.34;172652;28;955;-67
2022/08/23 00:23:27;;;;;;;11.83;6.03;;;;;;;16.57;91.25;101113.69;172697;28;1114;-67
2022/08/23 00:23:32;;;;;;;11.02;5.90;;;;;;;16.57;91.29;101113.69;172660;28;934;-67
2022/08/23 00:23:38;;;;;;;11.00;5.97;;;;;;;16.57;91.18;101117.19;172715;28;1026;-67
2022/08/23 00:23:43;;;;;;;10.23;5.82;;;;;;;16.57;91.08;101116.34;172578;28;758;-67
2022/08/23 00:23:49;;;;;;;9.80;5.93;;;;;;;16.59;91.19;101119.69;172607;28;1030;-67
2022/08/23 00:23:56;;;;;;;10.75;5.95;;;;;;;16.58;91.06;101115.38;172635;28;923;-67
2022/08/23 00:24:03;;;;;;;10.95;6.00;;;;;;;16.58;91.41;101113.59;172652;28;1148;-67
2022/08/23 00:24:10;;;;;;;10.96;5.86;;;;;;;16.58;91.38;101118.88;172711;28;919;-67
2022/08/23 00:24:16;;;;;;;11.37;5.87;;;;;;;16.58;91.21;101115.38;172693;28;1023;-67
2022/08/23 00:24:24;;;;;;;11.33;5.80;;;;;;;16.58;91.02;101112.75;171919;28;1561;-67
2022/08/23 00:24:30;;;;;;;10.00;5.72;;;;;;;16.58;91.43;101112.75;171242;28;1236;-67
2022/08/23 00:24:37;;;;;;;11.00;5.78;;;;;;;16.58;91.42;101112.75;171305;28;962;-67
2022/08/23 00:24:42;;;;;;;9.98;5.70;;;;;;;16.58;91.11;101113.59;171290;28;1589;-67
2022/08/23 00:24:48;;;;;;;9.40;5.70;;;;;;;16.59;91.11;101114.44;171325;28;884;-67
2022/08/23 00:24:53;;;;;;;9.73;5.70;;;;;;;16.59;91.14;101114.44;171310;28;927;-67
2022/08/23 00:24:59;;;;;;;10.43;5.63;;;;;;;16.59;91.34;101112.66;171325;28;1050;-67
2022/08/23 00:25:08;;;;;;;9.37;5.57;;;;;;;16.60;91.01;101116.13;171302;28;1098;-67
2022/08/23 00:25:14;;;;;;;10.60;5.63;;;;;;;16.60;91.17;101116.13;171257;28;2129;-67
2022/08/23 00:25:19;;;;;;;10.70;5.70;;;;;;;16.60;90.93;101113.50;171321;28;947;-67
2022/08/23 00:25:25;;;;;;;10.13;5.75;;;;;;;16.59;90.73;101114.44;171314;28;884;-67
2022/08/23 00:25:31;;;;;;;10.37;5.93;;;;;;;16.60;91.25;101113.50;171309;28;1073;-67
2022/08/23 00:25:36;;;;;;;10.07;5.90;;;;;;;16.60;91.01;101116.13;171336;28;1054;-67
2022/08/23 00:25:42;;;;;;;9.50;5.97;;;;;;;16.60;90.73;101116.97;171317;28;927;-67
2022/08/23 00:25:47;;;;;;;9.75;5.95;;;;;;;16.60;90.92;101113.50;171303;28;852;-67
2022/08/23 00:25:53;;;;;;;10.60;6.07;;;;;;;16.60;90.99;101113.50;170401;28;1208;-67
2022/08/23 00:26:01;;;;;;;10.88;6.00;;;;;;;16.59;90.89;101109.16;170377;28;1379;-67
2022/08/23 00:26:07;;;;;;;11.07;5.90;;;;;;;16.59;90.58;101111.78;171319;28;1165;-67
2022/08/23 00:26:12;;;;;;;11.20;5.77;;;;;;;16.59;90.91;101109.16;171305;28;1006;-67
2022/08/23 00:26:19;;;;;;;10.93;5.83;;;;;;;16.59;91.16;101112.66;171313;28;939;-67
2022/08/23 00:26:24;;;;;;;10.58;5.88;;;;;;;16.60;91.00;101118.78;171985;28;993;-67
2022/08/23 00:26:49;;;;;;;10.40;5.90;;;;;;;16.58;90.88;101107.47;172622;28;951;-67
2022/08/23 00:27:03;;;;;;;10.32;6.04;;;;;;;16.59;90.92;101114.44;172696;28;1229;-67
2022/08/23 00:27:13;;;;;;;10.04;5.94;;;;;;;16.58;91.18;101110.97;172653;28;1510;-67
2022/08/23 00:27:18;;;;;;;9.61;5.76;;;;;;;16.58;91.19;101110.09;172684;28;1241;-67
2022/08/23 00:27:24;;;;;;;8.95;5.72;;;;;;;16.57;91.18;101106.66;171915;28;927;-67
2022/08/23 00:27:30;;;;;;;8.93;5.63;;;;;;;16.57;91.04;101111.06;171973;28;907;-67
2022/08/23 00:27:36;;;;;;;9.48;5.70;;;;;;;16.57;91.42;101113.69;171997;28;948;-67
2022/08/23 00:27:42;;;;;;;10.12;5.76;;;;;;;16.57;91.56;101117.19;171980;28;1122;-67
2022/08/23 00:27:48;;;;;;;10.05;5.80;;;;;;;16.57;91.40;101113.69;171978;28;922;-67
2022/08/23 00:27:53;;;;;;;10.67;5.77;;;;;;;16.57;91.55;101111.06;172000;28;959;-67
2022/08/23 00:27:59;;;;;;;10.48;5.88;;;;;;;16.56;91.53;101115.47;171907;28;911;-67
2022/08/23 00:28:04;;;;;;;9.97;5.80;;;;;;;16.57;91.42;101111.06;171960;28;998;-67
2022/08/23 00:28:10;;;;;;;10.38;5.80;;;;;;;16.56;91.44;101109.38;172023;28;848;-68
2022/08/23 00:28:15;;;;;;;10.33;5.70;;;;;;;16.56;91.44;101114.66;171890;28;848;-68
2022/08/23 00:28:20;;;;;;;10.27;5.60;;;;;;;16.56;91.41;101112.84;172002;28;935;-67
2022/08/23 00:28:26;;;;;;;11.02;5.80;;;;;;;16.56;91.34;101109.38;171924;28;1508;-67
2022/08/23 00:28:32;;;;;;;10.80;5.70;;;;;;;16.55;91.51;101112.94;171973;28;1038;-67
2022/08/23 00:28:37;;;;;;;10.75;5.63;;;;;;;16.54;91.78;101111.25;172017;28;930;-67
2022/08/23 00:28:42;;;;;;;10.05;5.68;;;;;;;16.54;91.54;101111.25;171967;28;1034;-67
2022/08/23 00:28:48;;;;;;;10.67;5.83;;;;;;;16.54;91.70;101108.63;172009;28;911;-67
2022/08/23 00:28:54;;;;;;;10.05;5.72;;;;;;;16.54;91.73;101105.97;171960;28;1058;-67
2022/08/23 00:28:59;;;;;;;10.43;5.87;;;;;;;16.53;91.79;101113.03;171993;28;832;-67
2022/08/23 00:29:04;;;;;;;9.90;5.90;;;;;;;16.52;92.04;101113.97;171967;28;1033;-67
2022/08/23 00:29:10;;;;;;;9.93;5.95;;;;;;;16.52;91.63;101105.25;172024;28;1046;-67
2022/08/23 00:29:16;;;;;;;10.23;6.00;;;;;;;16.52;92.05;101108.72;171978;28;1094;-68
2022/08/23 00:29:34;;;;;;;10.67;5.90;;;;;;;16.51;91.95;101114.06;172168;28;1137;-67
2022/08/23 00:29:50;;;;;;;10.84;5.74;;;;;;;16.52;92.32;101113.97;172580;28;1350;-67
2022/08/23 00:29:57;;;;;;;11.31;5.82;;;;;;;16.52;92.33;101107.88;172645;28;1246;-67
2022/08/23 00:30:08;;;;;;;10.90;6.03;;;;;;;16.51;92.09;101116.72;172607;28;1280;-68
2022/08/23 00:30:15;;;;;;;10.93;6.03;;;;;;;16.49;91.99;101108.91;172406;28;982;-67
2022/08/23 00:30:20;;;;;;;10.96;6.12;;;;;;;16.48;92.36;101113.34;171980;28;897;-67
2022/08/23 00:30:26;;;;;;;10.77;6.13;;;;;;;16.48;91.97;101110.72;172545;28;843;-67
2022/08/23 00:30:32;;;;;;;11.00;6.07;;;;;;;16.47;92.24;101111.66;172713;28;1034;-67
2022/08/23 00:30:37;;;;;;;11.33;6.10;;;;;;;16.47;92.24;101105.53;172642;28;864;-67
2022/08/23 00:30:42;;;;;;;11.65;6.10;;;;;;;16.46;92.53;101109.94;172659;28;832;-67
2022/08/23 00:30:48;;;;;;;11.30;6.03;;;;;;;16.46;92.57;101109.94;172702;28;864;-67
2022/08/23 00:30:53;;;;;;;11.77;6.17;;;;;;;16.47;92.54;101109.03;172591;28;735;-67
2022/08/23 00:30:58;;;;;;;13.52;6.15;;;;;;;16.46;92.44;101109.13;172663;28;1374;-67
2022/08/23 00:31:04;;;;;;;13.20;6.20;;;;;;;16.47;92.66;101111.66;172677;28;1069;-67
2022/08/23 00:31:09;;;;;;;12.83;6.30;;;;;;;16.47;92.71;101109.03;172710;28;708;-67
2022/08/23 00:31:17;;;;;;;12.63;6.30;;;;;;;16.47;92.70;101109.03;172671;28;789;-67
2022/08/23 00:31:23;;;;;;;12.60;6.22;;;;;;;16.47;92.33;101114.28;172665;28;997;-67
2022/08/23 00:31:29;;;;;;;11.03;6.23;;;;;;;16.47;92.46;101106.38;172668;28;911;-67
2022/08/23 00:31:35;;;;;;;10.36;6.12;;;;;;;16.48;92.37;101107.22;172591;28;1215;-67
2022/08/23 00:31:40;;;;;;;9.90;6.05;;;;;;;16.47;92.44;101111.66;172731;28;1154;-67
2022/08/23 00:31:46;;;;;;;9.77;6.10;;;;;;;16.47;92.12;101109.03;172687;28;937;-68
2022/08/23 00:31:52;;;;;;;9.00;6.00;;;;;;;16.47;92.63;101116.94;172655;28;844;-67
2022/08/23 00:31:58;;;;;;;8.70;5.93;;;;;;;16.47;92.47;101110.81;172574;28;923;-68
2022/08/23 00:32:07;;;;;;;9.30;6.03;;;;;;;16.48;92.59;101115.13;172654;28;966;-67
2022/08/23 00:32:23;;;;;;;9.70;6.13;;;;;;;16.47;91.97;101111.66;172555;28;1372;-67
2022/08/23 00:32:33;;;;;;;9.44;6.14;;;;;;;16.48;92.37;101108.06;172646;28;1252;-67
2022/08/23 00:32:41;;;;;;;8.96;6.04;;;;;;;16.47;92.18;101109.03;172008;28;1226;-67
2022/08/23 00:32:46;;;;;;;8.40;5.98;;;;;;;16.47;92.59;101111.66;171969;28;967;-67
2022/08/23 00:32:52;;;;;;;8.30;5.93;;;;;;;16.47;92.48;101111.66;172309;28;844;-67